createdAt,value
2018-08-28T00:00:39.619Z,19.62
2018-08-28T00:01:43.787Z,19.59
2018-08-28T00:02:47.954Z,19.58
2018-08-28T00:03:52.954Z,19.59
2018-08-28T00:04:57.299Z,19.59
2018-08-28T00:06:01.417Z,19.58
2018-08-28T00:07:05.708Z,19.59
2018-08-28T00:08:09.925Z,19.58
2018-08-28T00:09:14.323Z,19.57
2018-08-28T00:10:18.502Z,19.55
2018-08-28T00:11:22.642Z,19.57
2018-08-28T00:12:27.046Z,19.56
2018-08-28T00:13:31.246Z,19.57
2018-08-28T00:14:35.432Z,19.57
2018-08-28T00:15:39.628Z,19.58
2018-08-28T00:16:43.905Z,19.58
2018-08-28T00:17:48.071Z,19.57
2018-08-28T00:18:52.226Z,19.56
2018-08-28T00:19:56.379Z,19.55
2018-08-28T00:21:00.535Z,19.54
2018-08-28T00:22:05.033Z,19.53
2018-08-28T00:23:09.185Z,19.51
2018-08-28T00:24:13.335Z,19.52
2018-08-28T00:25:17.506Z,19.52
2018-08-28T00:26:21.876Z,19.52
2018-08-28T00:27:26.061Z,19.52
2018-08-28T00:28:30.192Z,19.52
2018-08-28T00:29:34.548Z,19.52
2018-08-28T00:30:38.711Z,19.51
2018-08-28T00:31:42.916Z,19.50
2018-08-28T00:32:47.115Z,19.50
2018-08-28T00:33:51.450Z,19.50
2018-08-28T00:34:55.656Z,19.50
2018-08-28T00:36:00.007Z,19.50
2018-08-28T00:37:04.272Z,19.51
2018-08-28T00:38:08.455Z,19.51
2018-08-28T00:39:12.682Z,19.51
2018-08-28T00:40:16.815Z,19.51
2018-08-28T00:41:21.092Z,19.51
2018-08-28T00:42:25.271Z,19.51
2018-08-28T00:43:29.519Z,19.49
2018-08-28T00:44:33.810Z,19.48
2018-08-28T00:45:37.980Z,19.46
2018-08-28T00:46:42.167Z,19.44
2018-08-28T00:47:46.528Z,19.42
2018-08-28T00:48:50.766Z,19.41
2018-08-28T00:49:55.065Z,19.41
2018-08-28T00:50:59.509Z,19.40
2018-08-28T00:52:04.332Z,19.40
2018-08-28T00:53:08.577Z,19.39
2018-08-28T00:54:12.783Z,19.40
2018-08-28T00:55:16.981Z,19.41
2018-08-28T00:56:21.199Z,19.40
2018-08-28T00:57:25.366Z,19.40
2018-08-28T00:58:29.573Z,19.41
2018-08-28T00:59:33.784Z,19.43
2018-08-28T01:00:38.013Z,19.43
2018-08-28T01:01:42.163Z,19.44
2018-08-28T01:02:46.629Z,19.45
2018-08-28T01:03:50.987Z,19.45
2018-08-28T01:04:55.655Z,19.46
2018-08-28T01:05:59.814Z,19.46
2018-08-28T01:07:04.008Z,19.46
2018-08-28T01:08:08.181Z,19.46
2018-08-28T01:09:12.388Z,19.45
2018-08-28T01:10:16.596Z,19.45
2018-08-28T01:11:20.764Z,19.44
2018-08-28T01:12:25.096Z,19.45
2018-08-28T01:13:29.278Z,19.46
2018-08-28T01:14:33.621Z,19.45
2018-08-28T01:15:37.943Z,19.45
2018-08-28T01:16:42.979Z,19.45
2018-08-28T01:17:47.310Z,19.43
2018-08-28T01:18:51.483Z,19.42
2018-08-28T01:19:55.657Z,19.41
2018-08-28T01:20:59.833Z,19.39
2018-08-28T01:22:04.075Z,19.38
2018-08-28T01:23:08.239Z,19.37
2018-08-28T01:24:12.455Z,19.35
2018-08-28T01:25:16.744Z,19.34
2018-08-28T01:26:20.995Z,19.30
2018-08-28T01:27:25.294Z,19.29
2018-08-28T01:28:29.558Z,19.29
2018-08-28T01:29:33.859Z,19.29
2018-08-28T01:30:38.051Z,19.29
2018-08-28T01:31:42.585Z,19.28
2018-08-28T01:32:46.740Z,19.25
2018-08-28T01:33:51.136Z,19.24
2018-08-28T01:34:55.340Z,19.22
2018-08-28T01:35:59.560Z,19.22
2018-08-28T01:37:03.803Z,19.19
2018-08-28T01:38:07.967Z,19.18
2018-08-28T01:39:12.163Z,19.16
2018-08-28T01:40:16.398Z,19.15
2018-08-28T01:41:20.620Z,19.15
2018-08-28T01:42:25.367Z,19.14
2018-08-28T01:43:31.300Z,19.13
2018-08-28T01:44:35.851Z,19.12
2018-08-28T01:45:39.988Z,19.11
2018-08-28T01:46:44.223Z,19.10
2018-08-28T01:47:48.412Z,19.10
2018-08-28T01:48:52.579Z,19.10
2018-08-28T01:49:56.755Z,19.09
2018-08-28T01:51:00.951Z,19.09
2018-08-28T01:52:05.182Z,19.09
2018-08-28T01:53:09.387Z,19.09
2018-08-28T01:54:13.707Z,19.08
2018-08-28T01:55:18.003Z,19.08
2018-08-28T01:56:22.157Z,19.08
2018-08-28T01:57:26.346Z,19.07
2018-08-28T01:58:30.654Z,19.06
2018-08-28T01:59:34.838Z,19.05
2018-08-28T02:00:39.068Z,19.04
2018-08-28T02:01:43.232Z,19.03
2018-08-28T02:02:47.439Z,19.03
2018-08-28T02:03:51.611Z,19.02
2018-08-28T02:04:55.878Z,19.02
2018-08-28T02:06:00.072Z,19.01
2018-08-28T02:07:04.468Z,18.99
2018-08-28T02:08:08.758Z,18.99
2018-08-28T02:09:12.947Z,18.98
2018-08-28T02:10:17.194Z,18.98
2018-08-28T02:11:21.351Z,18.97
2018-08-28T02:12:25.831Z,18.96
2018-08-28T02:13:30.051Z,18.95
2018-08-28T02:14:34.234Z,18.95
2018-08-28T02:15:38.419Z,18.93
2018-08-28T02:16:42.595Z,18.93
2018-08-28T02:17:47.008Z,18.91
2018-08-28T02:18:51.400Z,18.89
2018-08-28T02:19:55.588Z,18.88
2018-08-28T02:20:59.771Z,18.87
2018-08-28T02:22:04.274Z,18.85
2018-08-28T02:23:08.470Z,18.85
2018-08-28T02:24:12.667Z,18.83
2018-08-28T02:25:16.876Z,18.81
2018-08-28T02:26:21.031Z,18.81
2018-08-28T02:27:25.696Z,18.80
2018-08-28T02:28:29.897Z,18.80
2018-08-28T02:29:34.092Z,18.80
2018-08-28T02:30:38.455Z,18.78
2018-08-28T02:31:42.819Z,18.78
2018-08-28T02:32:47.026Z,18.78
2018-08-28T02:33:51.183Z,18.76
2018-08-28T02:34:55.435Z,18.76
2018-08-28T02:35:59.672Z,18.75
2018-08-28T02:37:04.120Z,18.72
2018-08-28T02:38:08.532Z,18.71
2018-08-28T02:39:12.711Z,18.69
2018-08-28T02:40:16.919Z,18.70
2018-08-28T02:41:21.250Z,18.68
2018-08-28T02:42:25.396Z,18.66
2018-08-28T02:43:29.559Z,18.65
2018-08-28T02:44:33.729Z,18.65
2018-08-28T02:45:37.934Z,18.64
2018-08-28T02:46:42.110Z,18.62
2018-08-28T02:47:46.399Z,18.61
2018-08-28T02:48:50.579Z,18.59
2018-08-28T02:49:54.759Z,18.59
2018-08-28T02:50:59.151Z,18.58
2018-08-28T02:52:03.500Z,18.57
2018-08-28T02:53:08.519Z,18.55
2018-08-28T02:54:12.766Z,18.54
2018-08-28T02:55:17.574Z,18.51
2018-08-28T02:56:21.791Z,18.51
2018-08-28T02:57:25.904Z,18.50
2018-08-28T02:58:30.099Z,18.48
2018-08-28T02:59:34.240Z,18.45
2018-08-28T03:00:38.445Z,18.44
2018-08-28T03:01:42.712Z,18.43
2018-08-28T03:02:47.044Z,18.44
2018-08-28T03:03:51.469Z,18.41
2018-08-28T03:04:56.482Z,18.42
2018-08-28T03:06:00.661Z,18.41
2018-08-28T03:07:04.844Z,18.40
2018-08-28T03:08:09.010Z,18.40
2018-08-28T03:09:13.316Z,18.37
2018-08-28T03:10:17.543Z,18.37
2018-08-28T03:11:21.814Z,18.34
2018-08-28T03:12:26.460Z,18.32
2018-08-28T03:13:30.731Z,18.30
2018-08-28T03:14:34.919Z,18.28
2018-08-28T03:15:39.123Z,18.29
2018-08-28T03:16:43.219Z,18.28
2018-08-28T03:17:47.402Z,18.26
2018-08-28T03:18:51.539Z,18.26
2018-08-28T03:19:55.751Z,18.26
2018-08-28T03:21:00.009Z,18.26
2018-08-28T03:22:04.178Z,18.25
2018-08-28T03:23:08.458Z,18.26
2018-08-28T03:24:12.636Z,18.24
2018-08-28T03:25:16.810Z,18.24
2018-08-28T03:26:20.995Z,18.21
2018-08-28T03:27:25.380Z,18.22
2018-08-28T03:28:29.581Z,18.21
2018-08-28T03:29:33.788Z,18.19
2018-08-28T03:30:37.965Z,18.17
2018-08-28T03:31:42.210Z,18.15
2018-08-28T03:32:47.249Z,18.13
2018-08-28T03:33:51.472Z,18.11
2018-08-28T03:34:55.705Z,18.09
2018-08-28T03:35:59.930Z,18.07
2018-08-28T03:37:04.164Z,18.05
2018-08-28T03:38:08.316Z,18.03
2018-08-28T03:39:12.712Z,18.01
2018-08-28T03:40:16.956Z,18.00
2018-08-28T03:41:21.104Z,17.99
2018-08-28T03:42:25.292Z,17.96
2018-08-28T03:43:29.477Z,17.94
2018-08-28T03:44:33.765Z,17.93
2018-08-28T03:45:37.893Z,17.91
2018-08-28T03:46:42.070Z,17.90
2018-08-28T03:47:46.299Z,17.89
2018-08-28T03:48:50.443Z,17.88
2018-08-28T03:49:54.648Z,17.87
2018-08-28T03:50:58.818Z,17.87
2018-08-28T03:52:03.357Z,17.86
2018-08-28T03:53:07.571Z,17.85
2018-08-28T03:54:11.792Z,17.82
2018-08-28T03:55:16.062Z,17.80
2018-08-28T03:56:20.554Z,17.79
2018-08-28T03:57:24.788Z,17.78
2018-08-28T03:58:28.941Z,17.77
2018-08-28T03:59:33.136Z,17.76
2018-08-28T04:00:37.318Z,17.76
2018-08-28T04:01:41.483Z,17.76
2018-08-28T04:02:45.629Z,17.77
2018-08-28T04:03:49.845Z,17.77
2018-08-28T04:04:53.983Z,17.78
2018-08-28T04:05:58.297Z,17.78
2018-08-28T04:07:02.447Z,17.77
2018-08-28T04:08:06.579Z,17.77
2018-08-28T04:09:10.975Z,17.76
2018-08-28T04:10:15.196Z,17.74
2018-08-28T04:11:19.388Z,17.74
2018-08-28T04:12:23.566Z,17.72
2018-08-28T04:13:27.837Z,17.71
2018-08-28T04:14:32.020Z,17.69
2018-08-28T04:15:36.452Z,17.67
2018-08-28T04:16:40.865Z,17.66
2018-08-28T04:17:48.462Z,17.65
2018-08-28T04:18:52.619Z,17.63
2018-08-28T04:19:56.779Z,17.61
2018-08-28T04:21:01.164Z,17.61
2018-08-28T04:22:05.380Z,17.61
2018-08-28T04:23:09.574Z,17.60
2018-08-28T04:24:13.711Z,17.59
2018-08-28T04:25:18.818Z,17.58
2018-08-28T04:26:22.978Z,17.58
2018-08-28T04:27:27.163Z,17.59
2018-08-28T04:28:31.342Z,17.58
2018-08-28T04:29:35.498Z,17.57
2018-08-28T04:30:39.838Z,17.57
2018-08-28T04:31:43.856Z,17.57
2018-08-28T04:32:48.240Z,17.55
2018-08-28T04:33:52.431Z,17.57
2018-08-28T04:34:56.612Z,17.56
2018-08-28T04:36:00.856Z,17.55
2018-08-28T04:37:05.251Z,17.54
2018-08-28T04:38:09.450Z,17.55
2018-08-28T04:39:13.674Z,17.54
2018-08-28T04:40:17.903Z,17.54
2018-08-28T04:41:22.221Z,17.53
2018-08-28T04:42:26.381Z,17.53
2018-08-28T04:43:30.814Z,17.53
2018-08-28T04:44:34.991Z,17.52
2018-08-28T04:45:39.157Z,17.52
2018-08-28T04:46:43.346Z,17.52
2018-08-28T04:47:47.626Z,17.51
2018-08-28T04:48:52.906Z,17.50
2018-08-28T04:49:57.146Z,17.49
2018-08-28T04:51:01.323Z,17.48
2018-08-28T04:52:05.652Z,17.48
2018-08-28T04:53:09.818Z,17.47
2018-08-28T04:54:14.086Z,17.47
2018-08-28T04:55:18.200Z,17.47
2018-08-28T04:56:22.481Z,17.48
2018-08-28T04:57:26.640Z,17.47
2018-08-28T04:58:30.854Z,17.47
2018-08-28T04:59:35.039Z,17.47
2018-08-28T05:00:39.279Z,17.47
2018-08-28T05:01:43.393Z,17.47
2018-08-28T05:02:47.556Z,17.47
2018-08-28T05:03:51.895Z,17.48
2018-08-28T05:04:56.070Z,17.48
2018-08-28T05:06:00.330Z,17.50
2018-08-28T05:07:04.624Z,17.49
2018-08-28T05:08:08.847Z,17.51
2018-08-28T05:09:13.058Z,17.51
2018-08-28T05:10:17.233Z,17.50
2018-08-28T05:11:21.427Z,17.51
2018-08-28T05:12:25.646Z,17.51
2018-08-28T05:13:29.878Z,17.52
2018-08-28T05:14:34.051Z,17.52
2018-08-28T05:15:38.298Z,17.53
2018-08-28T05:16:42.475Z,17.53
2018-08-28T05:17:46.719Z,17.54
2018-08-28T05:18:50.893Z,17.55
2018-08-28T05:19:55.288Z,17.55
2018-08-28T05:20:59.473Z,17.55
2018-08-28T05:22:03.683Z,17.56
2018-08-28T05:23:07.839Z,17.57
2018-08-28T05:24:12.060Z,17.57
2018-08-28T05:25:16.390Z,17.57
2018-08-28T05:26:20.575Z,17.57
2018-08-28T05:27:24.743Z,17.57
2018-08-28T05:28:28.920Z,17.57
2018-08-28T05:29:33.141Z,17.58
2018-08-28T05:30:37.396Z,17.58
2018-08-28T05:31:41.592Z,17.58
2018-08-28T05:32:45.775Z,17.58
2018-08-28T05:33:50.157Z,17.58
2018-08-28T05:34:54.351Z,17.57
2018-08-28T05:35:58.530Z,17.57
2018-08-28T05:37:02.775Z,17.58
2018-08-28T05:38:07.071Z,17.60
2018-08-28T05:39:11.174Z,17.60
2018-08-28T05:40:15.723Z,17.63
2018-08-28T05:41:19.859Z,17.64
2018-08-28T05:42:24.020Z,17.67
2018-08-28T05:43:28.235Z,17.70
2018-08-28T05:44:32.398Z,17.72
2018-08-28T05:45:36.544Z,17.75
2018-08-28T05:46:40.675Z,17.79
2018-08-28T05:47:44.923Z,17.82
2018-08-28T05:48:49.111Z,17.85
2018-08-28T05:49:53.299Z,17.88
2018-08-28T05:50:57.483Z,17.91
2018-08-28T05:52:01.680Z,17.94
2018-08-28T05:53:06.798Z,17.99
2018-08-28T05:54:11.003Z,18.01
2018-08-28T05:55:15.170Z,18.06
2018-08-28T05:56:19.540Z,18.10
2018-08-28T05:57:23.644Z,18.13
2018-08-28T05:58:27.856Z,18.17
2018-08-28T05:59:32.031Z,18.21
2018-08-28T06:00:36.337Z,18.25
2018-08-28T06:01:40.476Z,18.28
2018-08-28T06:02:44.624Z,18.33
2018-08-28T06:03:48.849Z,18.37
2018-08-28T06:04:53.079Z,18.39
2018-08-28T06:05:57.259Z,18.42
2018-08-28T06:07:01.425Z,18.47
2018-08-28T06:08:06.268Z,18.49
2018-08-28T06:09:10.440Z,18.53
2018-08-28T06:10:14.805Z,18.56
2018-08-28T06:11:19.018Z,18.59
2018-08-28T06:12:23.216Z,18.63
2018-08-28T06:13:27.399Z,18.64
2018-08-28T06:14:31.648Z,18.68
2018-08-28T06:15:35.847Z,18.70
2018-08-28T06:16:40.008Z,18.72
2018-08-28T06:17:44.172Z,18.75
2018-08-28T06:18:48.541Z,18.77
2018-08-28T06:19:53.100Z,18.79
2018-08-28T06:20:57.292Z,18.82
2018-08-28T06:22:01.566Z,18.86
2018-08-28T06:23:06.004Z,18.90
2018-08-28T06:24:10.108Z,18.93
2018-08-28T06:25:14.297Z,18.96
2018-08-28T06:26:18.591Z,18.96
2018-08-28T06:27:22.701Z,18.98
2018-08-28T06:28:27.243Z,19.00
2018-08-28T06:29:31.618Z,19.00
2018-08-28T06:30:35.775Z,19.00
2018-08-28T06:31:39.947Z,19.02
2018-08-28T06:32:44.108Z,19.01
2018-08-28T06:33:49.077Z,19.03
2018-08-28T06:34:53.252Z,19.03
2018-08-28T06:35:57.470Z,19.02
2018-08-28T06:37:02.671Z,19.03
2018-08-28T06:38:06.862Z,19.05
2018-08-28T06:39:11.189Z,19.07
2018-08-28T06:40:15.439Z,19.08
2018-08-28T06:41:19.831Z,19.10
2018-08-28T06:42:24.098Z,19.13
2018-08-28T06:43:28.351Z,19.14
2018-08-28T06:44:32.586Z,19.15
2018-08-28T06:45:36.848Z,19.16
2018-08-28T06:46:41.370Z,19.17
2018-08-28T06:47:46.177Z,19.17
2018-08-28T06:48:52.966Z,19.19
2018-08-28T06:50:00.071Z,19.19
2018-08-28T06:51:06.941Z,19.20
2018-08-28T06:52:14.047Z,19.21
2018-08-28T06:53:21.250Z,19.22
2018-08-28T06:54:27.686Z,19.23
2018-08-28T06:55:34.981Z,19.24
2018-08-28T06:56:42.717Z,19.25
2018-08-28T06:57:50.145Z,19.28
2018-08-28T06:58:58.362Z,19.30
2018-08-28T07:00:08.439Z,19.31
2018-08-28T07:01:16.283Z,19.32
2018-08-28T07:02:25.499Z,19.34
2018-08-28T07:03:35.074Z,19.34
2018-08-28T07:04:41.849Z,19.36
2018-08-28T07:05:46.604Z,19.37
2018-08-28T07:06:53.545Z,19.36
2018-08-28T07:07:59.795Z,19.38
2018-08-28T07:09:06.596Z,19.39
2018-08-28T07:10:13.209Z,19.38
2018-08-28T07:11:20.572Z,19.38
2018-08-28T07:12:25.089Z,19.38
2018-08-28T07:13:31.676Z,19.39
2018-08-28T07:14:38.401Z,19.40
2018-08-28T07:15:46.334Z,19.39
2018-08-28T07:16:50.686Z,19.42
2018-08-28T07:17:57.273Z,19.43
2018-08-28T07:19:03.896Z,19.44
2018-08-28T07:20:10.290Z,19.45
2018-08-28T07:21:15.414Z,19.47
2018-08-28T07:22:21.654Z,19.48
2018-08-28T07:23:27.332Z,19.50
2018-08-28T07:24:34.634Z,19.52
2018-08-28T07:25:39.951Z,19.53
2018-08-28T07:26:44.065Z,19.55
2018-08-28T07:27:48.563Z,19.57
2018-08-28T07:28:52.815Z,19.59
2018-08-28T07:29:57.180Z,19.61
2018-08-28T07:31:01.550Z,19.62
2018-08-28T07:32:06.040Z,19.64
2018-08-28T07:33:10.322Z,19.65
2018-08-28T07:34:14.587Z,19.66
2018-08-28T07:35:18.933Z,19.68
2018-08-28T07:36:23.680Z,19.69
2018-08-28T07:37:28.154Z,19.69
2018-08-28T07:38:32.334Z,19.71
2018-08-28T07:39:36.624Z,19.72
2018-08-28T07:40:40.837Z,19.74
2018-08-28T07:41:45.434Z,19.73
2018-08-28T07:42:49.597Z,19.74
2018-08-28T07:43:53.751Z,19.77
2018-08-28T07:44:57.959Z,19.78
2018-08-28T07:46:03.184Z,19.80
2018-08-28T07:47:07.567Z,19.80
2018-08-28T07:48:11.796Z,19.83
2018-08-28T07:49:15.978Z,19.84
2018-08-28T07:50:20.482Z,19.86
2018-08-28T07:51:24.867Z,19.87
2018-08-28T07:52:29.105Z,19.87
2018-08-28T07:53:33.993Z,19.87
2018-08-28T07:54:38.520Z,19.85
2018-08-28T07:55:42.719Z,19.86
2018-08-28T07:56:46.948Z,19.87
2018-08-28T07:57:51.158Z,19.87
2018-08-28T07:58:55.443Z,19.90
2018-08-28T07:59:59.637Z,19.91
2018-08-28T08:01:03.873Z,19.94
2018-08-28T08:02:08.051Z,19.96
2018-08-28T08:03:12.274Z,19.98
2018-08-28T08:04:16.432Z,20.00
2018-08-28T08:05:20.797Z,20.02
2018-08-28T08:06:24.939Z,20.06
2018-08-28T08:07:29.133Z,20.07
2018-08-28T08:08:33.548Z,20.10
2018-08-28T08:09:37.869Z,20.12
2018-08-28T08:10:42.108Z,20.13
2018-08-28T08:11:46.436Z,20.14
2018-08-28T08:12:50.659Z,20.14
2018-08-28T08:13:54.869Z,20.15
2018-08-28T08:14:59.031Z,20.17
2018-08-28T08:16:03.382Z,20.18
2018-08-28T08:17:07.805Z,20.19
2018-08-28T08:18:12.222Z,20.19
2018-08-28T08:19:16.487Z,20.20
2018-08-28T08:20:20.703Z,20.22
2018-08-28T08:21:25.339Z,20.23
2018-08-28T08:22:29.569Z,20.23
2018-08-28T08:23:33.731Z,20.24
2018-08-28T08:24:37.934Z,20.25
2018-08-28T08:25:42.763Z,20.28
2018-08-28T08:26:46.950Z,20.29
2018-08-28T08:27:51.191Z,20.30
2018-08-28T08:28:55.375Z,20.31
2018-08-28T08:29:59.582Z,20.32
2018-08-28T08:31:03.799Z,20.33
2018-08-28T08:32:08.157Z,20.34
2018-08-28T08:33:12.360Z,20.34
2018-08-28T08:34:16.589Z,20.36
2018-08-28T08:35:20.921Z,20.37
2018-08-28T08:36:25.138Z,20.38
2018-08-28T08:37:29.355Z,20.40
2018-08-28T08:38:33.564Z,20.42
2018-08-28T08:39:37.818Z,20.44
2018-08-28T08:40:42.055Z,20.46
2018-08-28T08:41:46.208Z,20.48
2018-08-28T08:42:50.389Z,20.49
2018-08-28T08:43:54.607Z,20.50
2018-08-28T08:44:58.743Z,20.52
2018-08-28T08:46:03.096Z,20.55
2018-08-28T08:47:07.243Z,20.58
2018-08-28T08:48:11.424Z,20.61
2018-08-28T08:49:15.604Z,20.66
2018-08-28T08:50:19.869Z,20.69
2018-08-28T08:51:24.104Z,20.73
2018-08-28T08:52:28.432Z,20.78
2018-08-28T08:53:32.689Z,20.83
2018-08-28T08:54:36.843Z,20.88
2018-08-28T08:55:41.201Z,20.92
2018-08-28T08:56:46.887Z,20.97
2018-08-28T08:57:51.368Z,21.00
2018-08-28T08:58:55.523Z,21.03
2018-08-28T08:59:59.726Z,21.05
2018-08-28T09:01:03.942Z,21.07
2018-08-28T09:02:08.300Z,21.10
2018-08-28T09:03:12.560Z,21.12
2018-08-28T09:04:18.645Z,21.15
2018-08-28T09:05:24.015Z,21.19
2018-08-28T09:06:29.373Z,21.22
2018-08-28T09:07:34.821Z,21.25
2018-08-28T09:08:40.048Z,21.26
2018-08-28T09:09:45.060Z,21.27
2018-08-28T09:10:50.048Z,21.28
2018-08-28T09:11:55.242Z,21.29
2018-08-28T09:13:02.168Z,21.30
2018-08-28T09:14:07.346Z,21.32
2018-08-28T09:15:13.291Z,21.31
2018-08-28T09:16:19.165Z,21.32
2018-08-28T09:17:26.080Z,21.32
2018-08-28T09:18:33.309Z,21.33
2018-08-28T09:19:39.218Z,21.36
2018-08-28T09:20:45.708Z,21.37
2018-08-28T09:21:53.418Z,21.39
2018-08-28T09:23:00.435Z,21.42
2018-08-28T09:24:07.221Z,21.45
2018-08-28T09:25:12.171Z,21.47
2018-08-28T09:26:20.672Z,21.49
2018-08-28T09:27:24.875Z,21.50
2018-08-28T09:28:29.208Z,21.52
2018-08-28T09:29:33.684Z,21.54
2018-08-28T09:30:38.048Z,21.55
2018-08-28T09:31:43.466Z,21.59
2018-08-28T09:32:47.531Z,21.59
2018-08-28T09:33:51.696Z,21.60
2018-08-28T09:34:56.006Z,21.58
2018-08-28T09:36:00.337Z,21.60
2018-08-28T09:37:04.622Z,21.60
2018-08-28T09:38:09.698Z,21.60
2018-08-28T09:39:14.670Z,21.59
2018-08-28T09:40:18.976Z,21.57
2018-08-28T09:41:23.367Z,21.56
2018-08-28T09:42:27.835Z,21.56
2018-08-28T09:43:32.838Z,21.57
2018-08-28T09:44:37.415Z,21.60
2018-08-28T09:45:43.252Z,21.64
2018-08-28T09:46:47.543Z,21.67
2018-08-28T09:47:52.661Z,21.71
2018-08-28T09:48:57.428Z,21.75
2018-08-28T09:50:02.479Z,21.77
2018-08-28T09:51:11.996Z,21.81
2018-08-28T09:52:17.724Z,21.86
2018-08-28T09:53:23.034Z,21.91
2018-08-28T09:54:28.003Z,21.95
2018-08-28T09:55:33.124Z,22.00
2018-08-28T09:56:37.598Z,22.06
2018-08-28T09:57:42.318Z,22.10
2018-08-28T09:58:46.575Z,22.12
2018-08-28T09:59:50.752Z,22.13
2018-08-28T10:01:00.750Z,22.13
2018-08-28T10:02:05.339Z,22.13
2018-08-28T10:03:09.583Z,22.12
2018-08-28T10:04:14.799Z,22.14
2018-08-28T10:05:19.147Z,22.16
2018-08-28T10:06:23.335Z,22.18
2018-08-28T10:07:28.352Z,22.20
2018-08-28T10:08:32.898Z,22.21
2018-08-28T10:09:37.398Z,22.21
2018-08-28T10:10:42.596Z,22.21
2018-08-28T10:11:47.834Z,22.21
2018-08-28T10:12:52.164Z,22.22
2018-08-28T10:13:56.867Z,22.22
2018-08-28T10:15:01.354Z,22.21
2018-08-28T10:16:06.247Z,22.21
2018-08-28T10:17:10.468Z,22.22
2018-08-28T10:18:14.933Z,22.25
2018-08-28T10:19:19.264Z,22.31
2018-08-28T10:20:23.720Z,22.37
2018-08-28T10:21:28.205Z,22.44
2018-08-28T10:22:32.399Z,22.50
2018-08-28T10:23:36.674Z,22.55
2018-08-28T10:24:41.396Z,22.61
2018-08-28T10:25:45.910Z,22.68
2018-08-28T10:26:50.800Z,22.72
2018-08-28T10:27:55.339Z,22.75
2018-08-28T10:28:59.799Z,22.78
2018-08-28T10:30:05.071Z,22.81
2018-08-28T10:31:09.815Z,22.82
2018-08-28T10:32:14.619Z,22.86
2018-08-28T10:33:19.297Z,22.87
2018-08-28T10:34:24.183Z,22.88
2018-08-28T10:35:28.342Z,22.89
2018-08-28T10:36:33.204Z,22.88
2018-08-28T10:37:37.476Z,22.89
2018-08-28T10:38:42.558Z,22.88
2018-08-28T10:39:47.598Z,22.87
2018-08-28T10:40:52.663Z,22.88
2018-08-28T10:41:57.614Z,22.89
2018-08-28T10:43:01.947Z,22.93
2018-08-28T10:44:06.301Z,22.95
2018-08-28T10:45:10.718Z,22.99
2018-08-28T10:46:15.166Z,23.03
2018-08-28T10:47:20.349Z,23.06
2018-08-28T10:48:25.752Z,23.10
2018-08-28T10:49:31.005Z,23.11
2018-08-28T10:50:36.803Z,23.13
2018-08-28T10:51:41.752Z,23.15
2018-08-28T10:52:47.790Z,23.17
2018-08-28T10:53:53.907Z,23.17
2018-08-28T10:54:59.531Z,23.18
2018-08-28T10:56:05.458Z,23.19
2018-08-28T10:57:11.164Z,23.23
2018-08-28T10:58:16.587Z,23.27
2018-08-28T10:59:21.142Z,23.31
2018-08-28T11:00:26.227Z,23.34
2018-08-28T11:01:31.248Z,23.36
2018-08-28T11:02:36.815Z,23.39
2018-08-28T11:03:43.020Z,23.41
2018-08-28T11:04:47.319Z,23.42
2018-08-28T11:05:52.320Z,23.41
2018-08-28T11:06:57.020Z,23.42
2018-08-28T11:08:02.520Z,23.44
2018-08-28T11:09:08.478Z,23.44
2018-08-28T11:10:12.767Z,23.46
2018-08-28T11:11:17.560Z,23.46
2018-08-28T11:13:24.741Z,23.47
2018-08-28T11:14:28.947Z,23.48
2018-08-28T11:15:33.197Z,23.51
2018-08-28T11:16:37.499Z,23.53
2018-08-28T11:17:44.449Z,23.59
2018-08-28T11:18:49.639Z,23.60
2018-08-28T11:19:54.811Z,23.60
2018-08-28T11:20:59.740Z,23.59
2018-08-28T11:22:05.049Z,23.60
2018-08-28T11:23:09.982Z,23.59
2018-08-28T11:24:14.363Z,23.61
2018-08-28T11:25:19.613Z,23.64
2018-08-28T11:26:23.871Z,23.69
2018-08-28T11:27:28.084Z,23.71
2018-08-28T11:28:32.535Z,23.72
2018-08-28T11:29:36.726Z,23.68
2018-08-28T11:30:40.903Z,23.67
2018-08-28T11:31:45.092Z,23.66
2018-08-28T11:32:49.332Z,23.66
2018-08-28T11:33:53.559Z,23.69
2018-08-28T11:34:57.756Z,23.70
2018-08-28T11:36:01.940Z,23.71
2018-08-28T11:37:06.341Z,23.68
2018-08-28T11:38:10.544Z,23.67
2018-08-28T11:39:14.807Z,23.64
2018-08-28T11:40:18.990Z,23.62
2018-08-28T11:41:23.891Z,23.59
2018-08-28T11:42:28.088Z,23.59
2018-08-28T11:43:32.273Z,23.58
2018-08-28T11:44:36.582Z,23.58
2018-08-28T11:45:40.828Z,23.56
2018-08-28T11:46:44.994Z,23.57
2018-08-28T11:47:49.221Z,23.56
2018-08-28T11:48:53.424Z,23.57
2018-08-28T11:49:57.821Z,23.59
2018-08-28T11:51:01.987Z,23.61
2018-08-28T11:52:06.250Z,23.62
2018-08-28T11:53:10.481Z,23.64
2018-08-28T11:54:14.626Z,23.66
2018-08-28T11:55:18.836Z,23.69
2018-08-28T11:56:23.062Z,23.73
2018-08-28T11:57:27.420Z,23.76
2018-08-28T11:58:31.646Z,23.80
2018-08-28T11:59:35.879Z,23.80
2018-08-28T12:00:40.400Z,23.82
2018-08-28T12:01:44.604Z,23.83
2018-08-28T12:02:48.907Z,23.83
2018-08-28T12:03:53.332Z,23.83
2018-08-28T12:04:57.771Z,23.86
2018-08-28T12:06:01.973Z,23.88
2018-08-28T12:07:06.519Z,23.91
2018-08-28T12:08:10.657Z,23.97
2018-08-28T12:09:14.862Z,24.01
2018-08-28T12:10:19.723Z,24.08
2018-08-28T12:11:23.948Z,24.16
2018-08-28T12:12:28.192Z,24.22
2018-08-28T12:13:32.392Z,24.30
2018-08-28T12:14:36.623Z,24.34
2018-08-28T12:15:44.344Z,24.40
2018-08-28T12:16:52.857Z,24.45
2018-08-28T12:17:57.380Z,24.48
2018-08-28T12:19:01.793Z,24.49
2018-08-28T12:20:06.997Z,24.51
2018-08-28T12:21:11.382Z,24.51
2018-08-28T12:22:15.599Z,24.51
2018-08-28T12:23:19.793Z,24.52
2018-08-28T12:24:23.966Z,24.51
2018-08-28T12:25:28.184Z,24.49
2018-08-28T12:26:32.370Z,24.46
2018-08-28T12:27:36.781Z,24.43
2018-08-28T12:28:40.955Z,24.39
2018-08-28T12:29:45.177Z,24.38
2018-08-28T12:30:49.355Z,24.33
2018-08-28T12:31:53.559Z,24.29
2018-08-28T12:32:57.921Z,24.26
2018-08-28T12:34:02.147Z,24.22
2018-08-28T12:35:06.605Z,24.20
2018-08-28T12:36:10.840Z,24.14
2018-08-28T12:37:15.121Z,24.11
2018-08-28T12:38:19.450Z,24.06
2018-08-28T12:39:23.640Z,24.01
2018-08-28T12:40:27.802Z,23.96
2018-08-28T12:41:32.014Z,23.92
2018-08-28T12:42:36.181Z,23.89
2018-08-28T12:43:40.535Z,23.85
2018-08-28T12:44:44.693Z,23.83
2018-08-28T12:45:48.897Z,23.80
2018-08-28T12:46:53.407Z,23.76
2018-08-28T12:47:57.619Z,23.75
2018-08-28T12:49:01.820Z,23.72
2018-08-28T12:50:06.996Z,23.67
2018-08-28T12:51:11.416Z,23.65
2018-08-28T12:52:15.555Z,23.62
2018-08-28T12:53:19.832Z,23.60
2018-08-28T12:54:24.080Z,23.57
2018-08-28T12:55:28.329Z,23.53
2018-08-28T12:56:32.495Z,23.48
2018-08-28T12:57:36.688Z,23.48
2018-08-28T12:58:40.877Z,23.45
2018-08-28T12:59:45.102Z,23.41
2018-08-28T13:00:49.491Z,23.38
2018-08-28T13:01:53.578Z,23.36
2018-08-28T13:02:57.751Z,23.36
2018-08-28T13:04:02.056Z,23.35
2018-08-28T13:05:06.321Z,23.34
2018-08-28T13:06:10.638Z,23.37
2018-08-28T13:07:14.971Z,23.39
2018-08-28T13:08:19.210Z,23.41
2018-08-28T13:09:23.392Z,23.42
2018-08-28T13:10:27.629Z,23.45
2018-08-28T13:11:31.891Z,23.47
2018-08-28T13:12:36.174Z,23.49
2018-08-28T13:13:40.328Z,23.51
2018-08-28T13:14:44.704Z,23.53
2018-08-28T13:15:48.919Z,23.54
2018-08-28T13:16:54.288Z,23.55
2018-08-28T13:17:58.514Z,23.56
2018-08-28T13:19:02.727Z,23.59
2018-08-28T13:20:06.961Z,23.60
2018-08-28T13:21:11.160Z,23.61
2018-08-28T13:22:15.359Z,23.63
2018-08-28T13:23:19.572Z,23.63
2018-08-28T13:24:23.769Z,23.64
2018-08-28T13:25:28.103Z,23.65
2018-08-28T13:26:32.242Z,23.66
2018-08-28T13:27:36.509Z,23.66
2018-08-28T13:28:40.728Z,23.65
2018-08-28T13:29:44.919Z,23.65
2018-08-28T13:30:49.121Z,23.66
2018-08-28T13:31:53.324Z,23.66
2018-08-28T13:32:57.504Z,23.67
2018-08-28T13:34:01.654Z,23.67
2018-08-28T13:35:05.833Z,23.68
2018-08-28T13:36:10.161Z,23.68
2018-08-28T13:37:14.529Z,23.71
2018-08-28T13:38:18.738Z,23.72
2018-08-28T13:39:23.043Z,23.73
2018-08-28T13:40:27.292Z,23.73
2018-08-28T13:41:31.483Z,23.74
2018-08-28T13:42:35.684Z,23.74
2018-08-28T13:43:39.896Z,23.76
2018-08-28T13:44:44.887Z,23.75
2018-08-28T13:45:49.076Z,23.72
2018-08-28T13:46:54.262Z,23.69
2018-08-28T13:47:59.300Z,23.68
2018-08-28T13:49:04.066Z,23.66
2018-08-28T13:50:10.673Z,23.66
2018-08-28T13:51:16.483Z,23.67
2018-08-28T13:52:20.692Z,23.68